createdAt,value
2018-04-10T00:00:26.938Z,89.06
2018-04-10T00:01:26.994Z,89.44
2018-04-10T00:02:27.057Z,90.39
2018-04-10T00:03:27.116Z,90.11
2018-04-10T00:04:27.177Z,89.25
2018-04-10T00:05:27.487Z,88.53
2018-04-10T00:06:27.298Z,89.06
2018-04-10T00:07:27.360Z,90.11
2018-04-10T00:08:27.418Z,90.49
2018-04-10T00:09:27.479Z,90.78
2018-04-10T00:10:27.692Z,91.25
2018-04-10T00:11:27.602Z,91.06
2018-04-10T00:12:27.662Z,91.16
2018-04-10T00:13:27.721Z,91.16
2018-04-10T00:14:27.782Z,90.49
2018-04-10T00:15:27.843Z,90.59
2018-04-10T00:16:27.904Z,90.59
2018-04-10T00:17:27.965Z,91.06
2018-04-10T00:18:28.029Z,90.97
2018-04-10T00:19:28.085Z,91.06
2018-04-10T00:20:28.146Z,91.74
2018-04-10T00:21:28.360Z,91.35
2018-04-10T00:22:28.268Z,91.54
2018-04-10T00:23:28.326Z,91.74
2018-04-10T00:24:28.388Z,92.11
2018-04-10T00:25:28.449Z,91.45
2018-04-10T00:26:28.507Z,90.30
2018-04-10T00:27:28.568Z,90.97
2018-04-10T00:28:28.630Z,91.06
2018-04-10T00:29:28.688Z,90.11
2018-04-10T00:30:28.750Z,89.58
2018-04-10T00:31:28.810Z,89.53
2018-04-10T00:32:28.870Z,89.82
2018-04-10T00:33:28.931Z,90.97
2018-04-10T00:34:28.992Z,90.30
2018-04-10T00:35:29.053Z,89.96
2018-04-10T00:36:29.113Z,89.92
2018-04-10T00:37:29.171Z,91.35
2018-04-10T00:38:29.233Z,91.74
2018-04-10T00:39:29.294Z,91.88
2018-04-10T00:40:29.354Z,92.36
2018-04-10T00:41:29.413Z,92.16
2018-04-10T00:42:29.474Z,93.21
2018-04-10T00:43:29.535Z,92.45
2018-04-10T00:44:29.595Z,92.93
2018-04-10T00:45:29.658Z,92.55
2018-04-10T00:46:29.715Z,92.36
2018-04-10T00:47:29.778Z,91.74
2018-04-10T00:48:29.839Z,91.35
2018-04-10T00:49:29.895Z,91.54
2018-04-10T00:50:29.961Z,91.97
2018-04-10T00:51:30.017Z,92.36
2018-04-10T00:52:30.077Z,93.02
2018-04-10T00:53:30.137Z,93.12
2018-04-10T00:54:30.196Z,93.60
2018-04-10T00:55:30.258Z,94.41
2018-04-10T00:56:30.319Z,94.51
2018-04-10T00:57:30.378Z,94.89
2018-04-10T00:58:30.438Z,94.46
2018-04-10T00:59:30.499Z,93.31
2018-04-10T01:00:30.560Z,93.50
2018-04-10T01:01:30.617Z,93.88
2018-04-10T01:02:30.677Z,93.79
2018-04-10T01:03:30.739Z,93.88
2018-04-10T01:04:30.799Z,93.70
2018-04-10T01:05:30.858Z,93.12
2018-04-10T01:06:30.918Z,92.36
2018-04-10T01:07:30.980Z,93.60
2018-04-10T01:08:31.040Z,93.79
2018-04-10T01:09:31.099Z,93.79
2018-04-10T01:10:31.158Z,92.74
2018-04-10T01:11:31.218Z,92.36
2018-04-10T01:12:31.280Z,92.07
2018-04-10T01:13:31.338Z,92.93
2018-04-10T01:14:31.399Z,93.21
2018-04-10T01:15:31.459Z,93.70
2018-04-10T01:16:31.520Z,93.70
2018-04-10T01:17:31.579Z,93.31
2018-04-10T01:18:31.640Z,94.07
2018-04-10T01:19:31.700Z,94.55
2018-04-10T01:20:31.761Z,94.55
2018-04-10T01:21:31.821Z,94.27
2018-04-10T01:22:31.916Z,93.88
2018-04-10T01:23:31.940Z,93.41
2018-04-10T01:24:32.001Z,93.60
2018-04-10T01:25:32.059Z,93.79
2018-04-10T01:26:32.120Z,93.60
2018-04-10T01:27:32.180Z,93.70
2018-04-10T01:28:32.241Z,94.17
2018-04-10T01:29:32.300Z,94.17
2018-04-10T01:30:32.360Z,94.07
2018-04-10T01:31:32.421Z,94.89
2018-04-10T01:32:32.479Z,94.46
2018-04-10T01:33:32.540Z,94.46
2018-04-10T01:34:32.600Z,94.55
2018-04-10T01:35:32.661Z,94.46
2018-04-10T01:36:32.720Z,94.17
2018-04-10T01:37:32.780Z,94.36
2018-04-10T01:38:32.844Z,94.60
2018-04-10T01:39:32.899Z,94.89
2018-04-10T01:40:32.963Z,95.17
2018-04-10T01:41:33.053Z,94.98
2018-04-10T01:42:33.079Z,95.03
2018-04-10T01:43:33.140Z,95.03
2018-04-10T01:44:33.202Z,94.51
2018-04-10T01:45:33.260Z,95.17
2018-04-10T01:46:33.324Z,95.61
2018-04-10T01:47:33.381Z,94.36
2018-04-10T01:48:33.441Z,94.36
2018-04-10T01:49:33.525Z,93.70
2018-04-10T01:50:33.559Z,93.50
2018-04-10T01:51:33.621Z,94.46
2018-04-10T01:52:33.680Z,94.07
2018-04-10T01:53:33.739Z,93.88
2018-04-10T01:54:33.800Z,94.07
2018-04-10T01:55:33.860Z,93.50
2018-04-10T01:56:33.921Z,93.41
2018-04-10T01:57:33.980Z,92.83
2018-04-10T01:58:34.043Z,93.02
2018-04-10T01:59:34.100Z,93.60
2018-04-10T02:00:34.166Z,92.93
2018-04-10T02:01:34.220Z,92.83
2018-04-10T02:02:34.280Z,92.45
2018-04-10T02:03:34.341Z,93.60
2018-04-10T02:04:34.402Z,93.50
2018-04-10T02:05:34.460Z,93.41
2018-04-10T02:06:34.520Z,93.74
2018-04-10T02:07:34.581Z,94.65
2018-04-10T02:08:34.645Z,94.70
2018-04-10T02:09:34.700Z,94.74
2018-04-10T02:10:34.760Z,94.65
2018-04-10T02:11:34.821Z,94.27
2018-04-10T02:12:34.881Z,94.60
2018-04-10T02:13:34.939Z,95.08
2018-04-10T02:14:35.000Z,95.94
2018-04-10T02:15:35.061Z,96.89
2018-04-10T02:16:35.123Z,96.89
2018-04-10T02:17:35.180Z,96.03
2018-04-10T02:18:35.240Z,95.94
2018-04-10T02:19:35.303Z,95.94
2018-04-10T02:20:35.360Z,96.22
2018-04-10T02:21:35.421Z,96.70
2018-04-10T02:22:35.481Z,97.37
2018-04-10T02:23:35.543Z,97.66
2018-04-10T02:24:35.601Z,97.08
2018-04-10T02:25:35.661Z,96.61
2018-04-10T02:26:35.737Z,96.22
2018-04-10T02:27:35.797Z,96.61
2018-04-10T02:28:35.859Z,96.32
2018-04-10T02:29:35.910Z,95.84
2018-04-10T02:30:35.960Z,95.75
2018-04-10T02:31:36.021Z,96.42
2018-04-10T02:32:36.082Z,96.13
2018-04-10T02:33:36.143Z,96.22
2018-04-10T02:34:36.199Z,96.13
2018-04-10T02:35:36.261Z,96.03
2018-04-10T02:36:36.322Z,96.70
2018-04-10T02:37:36.380Z,96.89
2018-04-10T02:38:36.440Z,97.56
2018-04-10T02:39:36.500Z,97.61
2018-04-10T02:40:36.567Z,97.61
2018-04-10T02:41:36.619Z,97.99
2018-04-10T02:42:36.679Z,97.32
2018-04-10T02:43:36.740Z,98.27
2018-04-10T02:44:36.800Z,97.99
2018-04-10T02:45:36.861Z,97.99
2018-04-10T02:46:36.918Z,98.08
2018-04-10T02:47:37.229Z,98.37
2018-04-10T02:48:37.039Z,98.37
2018-04-10T02:49:37.099Z,98.32
2018-04-10T02:50:37.158Z,97.56
2018-04-10T02:51:37.219Z,97.85
2018-04-10T02:52:37.279Z,96.98
2018-04-10T02:53:37.589Z,96.80
2018-04-10T02:54:37.398Z,96.03
2018-04-10T02:55:37.458Z,95.84
2018-04-10T02:56:37.518Z,96.03
2018-04-10T02:57:37.576Z,95.84
2018-04-10T02:58:37.886Z,96.84
2018-04-10T02:59:37.696Z,98.18
2018-04-10T03:00:37.758Z,98.18
2018-04-10T03:01:37.814Z,97.89
2018-04-10T03:02:37.875Z,98.08
2018-04-10T03:03:37.934Z,98.47
2018-04-10T03:04:38.247Z,98.47
2018-04-10T03:05:38.054Z,98.08
2018-04-10T03:06:38.115Z,97.42
2018-04-10T03:07:38.176Z,97.99
2018-04-10T03:08:38.235Z,97.61
2018-04-10T03:09:38.296Z,97.42
2018-04-10T03:10:38.353Z,97.99
2018-04-10T03:11:38.413Z,98.56
2018-04-10T03:12:38.473Z,98.85
2018-04-10T03:13:38.531Z,99.52
2018-04-10T03:14:38.590Z,99.71
2018-04-10T03:15:38.651Z,99.71
2018-04-10T03:16:38.710Z,99.04
2018-04-10T03:17:38.768Z,99.13
2018-04-10T03:18:38.830Z,98.18
2018-04-10T03:19:38.889Z,98.18
2018-04-10T03:20:38.949Z,97.42
2018-04-10T03:21:39.008Z,97.51
2018-04-10T03:22:39.067Z,97.99
2018-04-10T03:23:39.127Z,98.27
2018-04-10T03:24:39.188Z,98.18
2018-04-10T03:25:39.246Z,97.80
2018-04-10T03:26:39.306Z,97.80
2018-04-10T03:27:39.365Z,97.80
2018-04-10T03:28:39.425Z,97.61
2018-04-10T03:29:39.485Z,98.18
2018-04-10T03:30:39.544Z,98.75
2018-04-10T03:31:39.603Z,99.13
2018-04-10T03:32:39.664Z,98.85
2018-04-10T03:33:39.722Z,98.66
2018-04-10T03:34:39.783Z,99.27
2018-04-10T03:35:39.854Z,99.18
2018-04-10T03:36:39.942Z,99.75
2018-04-10T03:37:39.961Z,99.99
2018-04-10T03:38:40.021Z,99.99
2018-04-10T03:39:40.081Z,99.99
2018-04-10T03:40:40.144Z,99.99
2018-04-10T03:41:40.203Z,99.99
2018-04-10T03:42:40.259Z,99.99
2018-04-10T03:43:40.322Z,99.99
2018-04-10T03:44:40.379Z,99.99
2018-04-10T03:45:40.438Z,99.99
2018-04-10T03:46:40.498Z,99.99
2018-04-10T03:47:40.557Z,99.99
2018-04-10T03:48:40.618Z,99.99
2018-04-10T03:49:40.826Z,99.99
2018-04-10T03:50:40.738Z,99.99
2018-04-10T03:51:40.795Z,99.99
2018-04-10T03:52:40.857Z,99.99
2018-04-10T03:53:40.913Z,99.99
2018-04-10T03:54:40.974Z,99.99
2018-04-10T03:55:41.052Z,99.99
2018-04-10T03:56:41.094Z,99.99
2018-04-10T03:57:41.153Z,99.99
2018-04-10T03:58:41.229Z,99.99
2018-04-10T03:59:41.273Z,99.99
2018-04-10T04:00:41.332Z,99.99
2018-04-10T04:01:41.391Z,99.99
2018-04-10T04:02:41.451Z,99.99
2018-04-10T04:03:41.511Z,99.99
2018-04-10T04:04:41.571Z,99.99
2018-04-10T04:05:41.632Z,99.99
2018-04-10T04:06:41.690Z,99.99
2018-04-10T04:07:41.748Z,99.99
2018-04-10T04:08:41.809Z,99.99
2018-04-10T04:09:41.867Z,99.99
2018-04-10T04:10:41.928Z,99.99
2018-04-10T04:11:42.003Z,99.99
2018-04-10T04:12:42.046Z,99.99
2018-04-10T04:13:42.105Z,99.99
2018-04-10T04:14:42.164Z,99.99
2018-04-10T04:15:42.223Z,99.99
2018-04-10T04:16:42.284Z,99.99
2018-04-10T04:17:42.342Z,99.99
2018-04-10T04:18:42.403Z,99.99
2018-04-10T04:19:42.461Z,99.99
2018-04-10T04:20:42.519Z,99.99
2018-04-10T04:21:42.580Z,99.99
2018-04-10T04:22:42.642Z,99.99
2018-04-10T04:23:42.700Z,99.99
2018-04-10T04:24:42.758Z,99.99
2018-04-10T04:25:42.815Z,99.99
2018-04-10T04:26:42.874Z,99.99
2018-04-10T04:27:42.935Z,99.99
2018-04-10T04:28:42.994Z,99.99
2018-04-10T04:29:43.056Z,99.99
2018-04-10T04:30:43.111Z,99.99
2018-04-10T04:31:43.172Z,99.99
2018-04-10T04:32:43.233Z,99.99
2018-04-10T04:33:43.290Z,99.99
2018-04-10T04:34:43.347Z,99.99
2018-04-10T04:35:43.409Z,99.99
2018-04-10T04:36:43.467Z,99.99
2018-04-10T04:37:43.528Z,99.99
2018-04-10T04:38:43.586Z,99.99
2018-04-10T04:39:43.644Z,99.99
2018-04-10T04:40:43.704Z,99.99
2018-04-10T04:41:43.762Z,99.99
2018-04-10T04:42:43.821Z,99.99
2018-04-10T04:43:43.880Z,99.99
2018-04-10T04:44:43.943Z,99.99
2018-04-10T04:45:43.999Z,99.99
2018-04-10T04:46:44.057Z,99.99
2018-04-10T04:47:44.117Z,99.99
2018-04-10T04:48:44.176Z,99.99
2018-04-10T04:49:44.235Z,99.99
2018-04-10T04:50:44.296Z,99.99
2018-04-10T04:51:44.353Z,99.99
2018-04-10T04:52:44.411Z,99.99
2018-04-10T04:53:44.470Z,99.99
2018-04-10T04:54:44.529Z,99.99
2018-04-10T04:55:44.636Z,99.99
2018-04-10T04:56:44.648Z,99.99
2018-04-10T04:57:44.707Z,99.99
2018-04-10T04:58:44.768Z,99.99
2018-04-10T04:59:44.826Z,99.99
2018-04-10T05:00:44.886Z,99.99
2018-04-10T05:01:44.943Z,99.99
2018-04-10T05:02:45.003Z,99.99
2018-04-10T05:03:45.069Z,99.99
2018-04-10T05:04:45.123Z,99.99
2018-04-10T05:05:45.180Z,99.99
2018-04-10T05:06:45.918Z,99.99
2018-04-10T05:07:45.301Z,99.99
2018-04-10T05:08:45.364Z,99.99
2018-04-10T05:09:45.420Z,99.99
2018-04-10T05:10:45.476Z,99.99
2018-04-10T05:11:45.536Z,99.99
2018-04-10T05:12:45.596Z,99.99
2018-04-10T05:13:45.656Z,99.99
2018-04-10T05:14:45.712Z,99.99
2018-04-10T05:15:46.126Z,99.99
2018-04-10T05:16:46.158Z,99.99
2018-04-10T05:17:46.256Z,99.99
2018-04-10T05:18:45.949Z,99.99
2018-04-10T05:19:46.008Z,99.99
2018-04-10T05:20:46.067Z,99.99
2018-04-10T05:21:46.126Z,99.99
2018-04-10T05:22:46.186Z,99.99
2018-04-10T05:23:46.789Z,99.99
2018-04-10T05:24:46.307Z,99.99
2018-04-10T05:25:46.364Z,99.99
2018-04-10T05:26:46.526Z,99.99
2018-04-10T05:27:46.482Z,99.99
2018-04-10T05:28:46.543Z,99.99
2018-04-10T05:29:46.600Z,99.99
2018-04-10T05:30:46.660Z,99.99
2018-04-10T05:31:46.719Z,99.99
2018-04-10T05:32:46.780Z,99.99
2018-04-10T05:33:46.839Z,99.99
2018-04-10T05:34:46.898Z,99.99
2018-04-10T05:35:46.958Z,99.99
2018-04-10T05:36:47.018Z,99.99
2018-04-10T05:37:47.077Z,99.99
2018-04-10T05:38:47.136Z,99.99
2018-04-10T05:39:47.198Z,99.99
2018-04-10T05:40:47.255Z,99.99
2018-04-10T05:41:47.313Z,99.99
2018-04-10T05:42:47.373Z,99.99
2018-04-10T05:43:47.435Z,99.99
2018-04-10T05:44:47.499Z,99.99
2018-04-10T05:45:47.556Z,99.99
2018-04-10T05:46:47.611Z,99.99
2018-04-10T05:47:47.671Z,99.99
2018-04-10T05:48:47.729Z,99.99
2018-04-10T05:49:48.372Z,99.99
2018-04-10T05:50:47.850Z,99.99
2018-04-10T05:51:47.908Z,99.99
2018-04-10T05:52:47.969Z,99.99
2018-04-10T05:53:48.026Z,99.99
2018-04-10T05:54:48.086Z,99.99
2018-04-10T05:55:48.147Z,99.99
2018-04-10T05:56:48.206Z,99.99
2018-04-10T05:57:48.266Z,99.99
2018-04-10T05:58:48.325Z,99.99
2018-04-10T05:59:48.386Z,99.99
2018-04-10T06:00:48.444Z,99.99
2018-04-10T06:01:48.503Z,99.99
2018-04-10T06:02:49.123Z,99.99
2018-04-10T06:03:49.512Z,99.99
2018-04-10T06:04:48.683Z,99.99
2018-04-10T06:05:48.744Z,99.99
2018-04-10T06:06:48.803Z,99.99
2018-04-10T06:07:48.863Z,99.99
2018-04-10T06:08:48.921Z,99.99
2018-04-10T06:09:48.980Z,99.99
2018-04-10T06:10:49.041Z,99.99
2018-04-10T06:11:49.110Z,99.99
2018-04-10T06:12:49.160Z,99.90
2018-04-10T06:13:49.219Z,99.99
2018-04-10T06:14:49.279Z,99.90
2018-04-10T06:15:49.354Z,99.99
2018-04-10T06:16:49.399Z,99.99
2018-04-10T06:17:49.458Z,99.90
2018-04-10T06:18:49.518Z,99.32
2018-04-10T06:19:49.579Z,99.99
2018-04-10T06:20:49.651Z,99.80
2018-04-10T06:21:49.710Z,99.80
2018-04-10T06:22:49.761Z,99.52
2018-04-10T06:23:49.821Z,99.99
2018-04-10T06:24:49.882Z,99.99
2018-04-10T06:25:49.939Z,99.99
2018-04-10T06:26:50.001Z,99.99
2018-04-10T06:27:50.064Z,99.99
2018-04-10T06:28:50.121Z,99.99
2018-04-10T06:29:50.180Z,99.80
2018-04-10T06:30:50.240Z,99.99
2018-04-10T06:31:50.302Z,99.99
2018-04-10T06:32:50.362Z,99.99
2018-04-10T06:33:50.422Z,99.99
2018-04-10T06:34:50.482Z,99.99
2018-04-10T06:35:51.174Z,99.99
2018-04-10T06:36:50.604Z,99.99
2018-04-10T06:37:50.662Z,99.99
2018-04-10T06:38:50.723Z,99.52
2018-04-10T06:39:50.787Z,99.52
2018-04-10T06:40:51.675Z,99.71
2018-04-10T06:41:50.936Z,99.71
2018-04-10T06:42:51.321Z,99.71
2018-04-10T06:43:51.024Z,99.61
2018-04-10T06:44:51.086Z,99.32
2018-04-10T06:45:51.146Z,99.23
2018-04-10T06:46:51.207Z,99.13
2018-04-10T06:47:51.623Z,99.04
2018-04-10T06:48:51.328Z,98.75
2018-04-10T06:49:51.387Z,99.13
2018-04-10T06:50:51.448Z,99.13
2018-04-10T06:51:51.509Z,98.94
2018-04-10T06:52:51.569Z,99.32
2018-04-10T06:53:51.629Z,99.61
2018-04-10T06:54:51.688Z,99.71
2018-04-10T06:55:51.753Z,99.13
2018-04-10T06:56:51.830Z,98.85
2018-04-10T06:57:51.871Z,99.42
2018-04-10T06:58:51.932Z,99.32
2018-04-10T06:59:51.992Z,99.80
2018-04-10T07:00:52.053Z,99.99
2018-04-10T07:01:52.111Z,99.90
2018-04-10T07:02:52.172Z,99.80
2018-04-10T07:03:52.233Z,99.42
2018-04-10T07:04:52.862Z,99.99
2018-04-10T07:05:52.355Z,99.71
2018-04-10T07:06:52.416Z,99.99
2018-04-10T07:07:53.197Z,99.99
2018-04-10T07:08:52.536Z,99.90
2018-04-10T07:09:52.600Z,99.99
2018-04-10T07:10:52.656Z,99.32
2018-04-10T07:11:52.717Z,99.99
2018-04-10T07:12:52.778Z,99.52
2018-04-10T07:13:52.837Z,99.99
2018-04-10T07:14:52.898Z,99.99
2018-04-10T07:15:52.957Z,99.99
2018-04-10T07:16:53.019Z,99.90
2018-04-10T07:17:53.078Z,99.99
2018-04-10T07:18:53.139Z,99.99
2018-04-10T07:19:53.199Z,99.99
2018-04-10T07:20:53.280Z,99.42
2018-04-10T07:21:53.319Z,99.28
2018-04-10T07:22:53.379Z,99.76
2018-04-10T07:23:53.443Z,99.71
2018-04-10T07:24:53.504Z,99.99
2018-04-10T07:25:53.561Z,99.08
2018-04-10T07:26:53.621Z,99.76
2018-04-10T07:27:53.682Z,99.28
2018-04-10T07:28:53.743Z,99.08
2018-04-10T07:29:53.804Z,98.99
2018-04-10T07:30:53.864Z,98.52
2018-04-10T07:31:53.927Z,99.18
2018-04-10T07:32:53.985Z,98.61
2018-04-10T07:33:54.044Z,98.42
2018-04-10T07:34:54.105Z,99.18
2018-04-10T07:35:54.165Z,98.42
2018-04-10T07:36:54.225Z,98.03
2018-04-10T07:37:54.285Z,98.03
2018-04-10T07:38:54.347Z,98.32
2018-04-10T07:39:54.407Z,98.13
2018-04-10T07:40:54.777Z,98.52
2018-04-10T07:41:54.526Z,98.32
2018-04-10T07:42:55.155Z,97.47
2018-04-10T07:43:54.647Z,98.13
2018-04-10T07:44:54.708Z,97.94
2018-04-10T07:45:54.770Z,97.47
2018-04-10T07:46:54.830Z,97.75
2018-04-10T07:47:54.892Z,98.03
2018-04-10T07:48:54.952Z,97.89
2018-04-10T07:49:55.010Z,97.80
2018-04-10T07:50:55.072Z,98.18
2018-04-10T07:51:55.133Z,97.13
2018-04-10T07:52:55.193Z,97.52
2018-04-10T07:53:55.254Z,98.08
2018-04-10T07:54:55.315Z,97.13
2018-04-10T07:55:55.375Z,97.71
2018-04-10T07:56:55.437Z,97.32
2018-04-10T07:57:55.497Z,97.13
2018-04-10T07:58:55.558Z,96.75
2018-04-10T07:59:55.618Z,97.61
2018-04-10T08:00:55.680Z,97.61
2018-04-10T08:01:55.742Z,97.61
2018-04-10T08:02:55.801Z,97.71
2018-04-10T08:03:56.185Z,97.52
2018-04-10T08:04:55.924Z,96.84
2018-04-10T08:05:55.984Z,96.75
2018-04-10T08:06:56.047Z,96.37
2018-04-10T08:07:56.108Z,96.17
2018-04-10T08:08:56.169Z,96.66
2018-04-10T08:09:56.230Z,97.52
2018-04-10T08:10:56.290Z,97.13
2018-04-10T08:11:56.353Z,97.13
2018-04-10T08:12:56.414Z,96.94
2018-04-10T08:13:56.475Z,97.71
2018-04-10T08:14:56.544Z,96.37
2018-04-10T08:15:56.598Z,96.46
2018-04-10T08:16:56.659Z,96.51
2018-04-10T08:17:56.720Z,95.75
2018-04-10T08:18:56.783Z,95.56
2018-04-10T08:19:56.996Z,95.22
2018-04-10T08:20:56.914Z,94.84
2018-04-10T08:21:56.971Z,93.50
2018-04-10T08:22:57.030Z,92.74
2018-04-10T08:23:57.092Z,92.74
2018-04-10T08:24:57.154Z,91.92
2018-04-10T08:25:57.215Z,92.21
2018-04-10T08:26:57.277Z,90.67
2018-04-10T08:27:57.339Z,90.96
2018-04-10T08:28:57.401Z,91.53
2018-04-10T08:29:57.462Z,90.87
2018-04-10T08:30:57.677Z,91.16
2018-04-10T08:31:57.592Z,90.53
2018-04-10T08:32:57.651Z,89.95
2018-04-10T08:33:57.714Z,88.33
2018-04-10T08:34:57.776Z,88.90
2018-04-10T08:35:57.839Z,89.19
2018-04-10T08:36:57.903Z,88.13
2018-04-10T08:37:57.966Z,86.99
2018-04-10T08:38:58.031Z,87.18
2018-04-10T08:39:58.091Z,87.13
2018-04-10T08:40:58.154Z,85.79
2018-04-10T08:41:58.216Z,85.12
2018-04-10T08:42:58.284Z,85.21
2018-04-10T08:43:58.344Z,85.41
2018-04-10T08:44:58.415Z,85.41
2018-04-10T08:45:58.469Z,85.12
2018-04-10T08:46:58.533Z,85.41
2018-04-10T08:47:58.597Z,85.31
2018-04-10T08:48:58.661Z,84.64
2018-04-10T08:49:58.723Z,85.36
2018-04-10T08:50:58.788Z,85.55
2018-04-10T08:51:59.442Z,85.08
2018-04-10T08:52:58.916Z,84.79
2018-04-10T08:53:58.979Z,85.17
2018-04-10T08:54:59.042Z,85.08
2018-04-10T08:55:59.107Z,85.12
2018-04-10T08:56:59.171Z,84.83
2018-04-10T08:57:59.233Z,84.26
2018-04-10T08:58:59.299Z,84.55
2018-04-10T08:59:59.382Z,83.20
2018-04-10T09:00:59.427Z,83.25
2018-04-10T09:01:59.490Z,83.15
2018-04-10T09:02:59.555Z,82.48
2018-04-10T09:03:59.620Z,82.38
2018-04-10T09:04:59.683Z,81.33
2018-04-10T09:05:59.747Z,80.76
2018-04-10T09:06:59.812Z,80.66
2018-04-10T09:07:59.876Z,80.70
2018-04-10T09:08:59.939Z,80.51
2018-04-10T09:10:00.006Z,79.45
2018-04-10T09:11:00.069Z,78.92
2018-04-10T09:12:00.133Z,78.05
2018-04-10T09:13:00.199Z,78.15
2018-04-10T09:14:00.261Z,78.25
2018-04-10T09:15:00.329Z,77.67
2018-04-10T09:16:00.391Z,76.32
2018-04-10T09:17:00.456Z,76.62
2018-04-10T09:18:00.524Z,76.42
2018-04-10T09:19:00.584Z,76.52
2018-04-10T09:20:00.650Z,76.52
2018-04-10T09:21:00.715Z,77.58
2018-04-10T09:22:00.780Z,76.52
2018-04-10T09:23:00.845Z,76.52
2018-04-10T09:24:00.911Z,76.52
2018-04-10T09:25:00.974Z,76.56
2018-04-10T09:26:01.039Z,76.56
2018-04-10T09:27:01.114Z,76.75
2018-04-10T09:28:01.171Z,76.46
2018-04-10T09:29:01.236Z,75.21
2018-04-10T09:30:01.300Z,75.02
2018-04-10T09:31:01.365Z,75.27
2018-04-10T09:32:01.431Z,75.27
2018-04-10T09:33:02.344Z,75.98
2018-04-10T09:34:02.272Z,75.31
2018-04-10T09:35:01.626Z,75.50
2018-04-10T09:36:01.695Z,75.02
2018-04-10T09:37:02.078Z,75.70
2018-04-10T09:38:01.825Z,74.93
2018-04-10T09:39:01.890Z,74.10
2018-04-10T09:40:01.956Z,74.19
2018-04-10T09:41:02.023Z,73.62
2018-04-10T09:42:02.091Z,74.10
2018-04-10T09:43:02.154Z,74.01
2018-04-10T09:44:02.225Z,73.43
2018-04-10T09:45:02.286Z,73.81
2018-04-10T09:46:02.355Z,73.08
2018-04-10T09:47:02.448Z,73.18
2018-04-10T09:48:02.482Z,72.89
2018-04-10T09:49:02.549Z,72.79
2018-04-10T09:50:02.751Z,72.12
2018-04-10T09:51:02.681Z,71.93
2018-04-10T09:52:02.748Z,71.19
2018-04-10T09:53:02.815Z,70.33
2018-04-10T09:54:02.884Z,69.56
2018-04-10T09:55:02.959Z,69.89
2018-04-10T09:56:03.020Z,69.79
2018-04-10T09:57:03.078Z,69.21
2018-04-10T09:58:03.148Z,69.12
2018-04-10T09:59:03.210Z,69.46
2018-04-10T10:00:03.278Z,69.37
2018-04-10T10:01:03.349Z,69.66
2018-04-10T10:02:03.409Z,69.27
2018-04-10T10:03:03.478Z,69.60
2018-04-10T10:04:03.543Z,67.96
2018-04-10T10:05:03.611Z,67.58
2018-04-10T10:06:03.675Z,66.74
2018-04-10T10:07:03.745Z,65.69
2018-04-10T10:08:03.809Z,65.01
2018-04-10T10:09:03.877Z,65.01
2018-04-10T10:10:03.943Z,64.82
2018-04-10T10:11:04.010Z,64.08
2018-04-10T10:12:04.077Z,63.79
2018-04-10T10:13:04.143Z,63.51
2018-04-10T10:14:04.211Z,63.89
2018-04-10T10:15:04.277Z,64.73
2018-04-10T10:16:04.346Z,63.99
2018-04-10T10:17:04.414Z,64.92
2018-04-10T10:18:04.480Z,64.28
2018-04-10T10:19:04.547Z,64.18
2018-04-10T10:20:04.613Z,63.70
2018-04-10T10:21:04.681Z,63.41
2018-04-10T10:22:04.749Z,61.68
2018-04-10T10:23:04.837Z,62.23
2018-04-10T10:24:04.884Z,61.68
2018-04-10T10:25:04.956Z,61.10
2018-04-10T10:26:05.040Z,59.47
2018-04-10T10:27:05.087Z,58.89
2018-04-10T10:28:05.154Z,59.01
2018-04-10T10:29:05.221Z,59.01
2018-04-10T10:30:05.289Z,58.24
2018-04-10T10:31:05.356Z,58.15
2018-04-10T10:32:05.425Z,57.95
2018-04-10T10:33:05.496Z,57.98
2018-04-10T10:34:05.558Z,57.89
2018-04-10T10:35:05.776Z,57.95
2018-04-10T10:36:05.701Z,57.31
2018-04-10T10:37:05.765Z,56.73
2018-04-10T10:38:05.829Z,56.51
2018-04-10T10:39:05.924Z,57.54
2018-04-10T10:40:05.964Z,59.05
2018-04-10T10:41:06.032Z,59.15
2018-04-10T10:42:06.100Z,59.75
2018-04-10T10:43:06.168Z,58.98
2018-04-10T10:44:06.236Z,58.53
2018-04-10T10:45:06.303Z,57.57
2018-04-10T10:46:06.525Z,56.92
2018-04-10T10:47:06.492Z,55.89
2018-04-10T10:48:06.512Z,54.44
2018-04-10T10:49:06.577Z,54.71
2018-04-10T10:50:06.646Z,55.12
2018-04-10T10:51:06.719Z,55.77
2018-04-10T10:52:06.784Z,56.05
2018-04-10T10:53:06.855Z,55.93
2018-04-10T10:54:06.923Z,56.80
2018-04-10T10:55:06.991Z,56.99
2018-04-10T10:56:07.060Z,56.87
2018-04-10T10:57:07.131Z,56.96
2018-04-10T10:58:07.220Z,56.10
2018-04-10T10:59:07.268Z,55.43
2018-04-10T11:00:07.337Z,55.13
2018-04-10T11:01:07.406Z,54.46
2018-04-10T11:02:07.472Z,53.98
2018-04-10T11:03:07.741Z,54.94
2018-04-10T11:04:07.611Z,55.40
2018-04-10T11:05:07.676Z,55.98
2018-04-10T11:06:07.744Z,55.68
2018-04-10T11:07:07.812Z,56.55
2018-04-10T11:08:07.881Z,55.68
2018-04-10T11:09:07.953Z,55.20
2018-04-10T11:10:08.011Z,54.91
2018-04-10T11:11:08.080Z,54.46
2018-04-10T11:12:08.147Z,54.27
2018-04-10T11:13:08.214Z,54.87
2018-04-10T11:14:08.286Z,54.94
2018-04-10T11:15:08.347Z,56.00
2018-04-10T11:16:08.413Z,55.71
2018-04-10T11:17:08.481Z,56.22
2018-04-10T11:18:08.548Z,55.55
2018-04-10T11:19:09.177Z,55.74
2018-04-10T11:20:08.834Z,54.97
2018-04-10T11:21:08.749Z,55.93
2018-04-10T11:22:08.817Z,56.51
2018-04-10T11:23:09.283Z,57.47
2018-04-10T11:24:08.952Z,60.49
2018-04-10T11:25:09.019Z,62.80
2018-04-10T11:26:09.088Z,64.02
2018-04-10T11:27:09.155Z,64.12
2018-04-10T11:28:09.221Z,64.50
2018-04-10T11:29:09.292Z,64.89
2018-04-10T11:30:09.506Z,65.23
2018-04-10T11:31:09.424Z,64.76
2018-04-10T11:32:09.492Z,65.27
2018-04-10T11:33:09.560Z,64.79
2018-04-10T11:34:09.626Z,64.69
2018-04-10T11:35:09.693Z,64.89
2018-04-10T11:36:09.762Z,64.02
2018-04-10T11:37:09.829Z,63.64
2018-04-10T11:38:09.898Z,63.73
2018-04-10T11:39:10.008Z,63.48
2018-04-10T11:40:10.032Z,63.09
2018-04-10T11:41:10.099Z,62.87
2018-04-10T11:42:10.164Z,63.18
2018-04-10T11:43:10.232Z,61.19
2018-04-10T11:44:10.299Z,61.19
2018-04-10T11:45:10.366Z,60.75
2018-04-10T11:46:10.436Z,59.72
2018-04-10T11:47:10.499Z,59.01
2018-04-10T11:48:10.568Z,59.43
2018-04-10T11:49:10.635Z,59.33
2018-04-10T11:50:11.012Z,59.30
2018-04-10T11:51:10.780Z,60.24
2018-04-10T11:52:10.838Z,59.97
2018-04-10T11:53:10.906Z,59.23
2018-04-10T11:54:10.973Z,58.42
2018-04-10T11:55:11.041Z,56.04
2018-04-10T11:56:11.108Z,55.18
2018-04-10T11:57:11.176Z,55.27
2018-04-10T11:58:11.248Z,54.98
2018-04-10T11:59:11.312Z,54.60
2018-04-10T12:00:11.428Z,53.75
2018-04-10T12:01:11.449Z,53.47
2018-04-10T12:02:11.518Z,53.73
2018-04-10T12:03:11.585Z,53.85
2018-04-10T12:04:11.655Z,53.20
2018-04-10T12:05:11.724Z,51.49
2018-04-10T12:06:11.792Z,51.65
2018-04-10T12:07:11.861Z,52.11
2018-04-10T12:08:11.942Z,53.61
2018-04-10T12:09:12.000Z,55.99
2018-04-10T12:10:12.070Z,56.27
2018-04-10T12:11:12.140Z,54.96
2018-04-10T12:12:12.209Z,53.17
2018-04-10T12:13:12.278Z,51.68
2018-04-10T12:14:12.348Z,50.98
2018-04-10T12:15:12.726Z,51.75
2018-04-10T12:16:12.487Z,52.26
2018-04-10T12:17:12.560Z,49.87
2018-04-10T12:18:12.627Z,49.51
2018-04-10T12:19:12.696Z,48.83
2018-04-10T12:20:12.769Z,48.97
2018-04-10T12:21:12.838Z,49.92
2018-04-10T12:22:12.910Z,50.74
2018-04-10T12:23:12.981Z,52.06
2018-04-10T12:24:13.051Z,53.09
2018-04-10T12:25:13.124Z,53.03
2018-04-10T12:26:13.190Z,53.77
2018-04-10T12:27:13.261Z,54.52
2018-04-10T12:28:13.336Z,55.67
2018-04-10T12:29:13.404Z,55.77
2018-04-10T12:30:13.472Z,56.05
2018-04-10T12:31:13.543Z,55.70
2018-04-10T12:32:13.613Z,53.99
2018-04-10T12:33:13.684Z,52.86
2018-04-10T12:34:13.753Z,51.05
2018-04-10T12:35:13.823Z,49.80
2018-04-10T12:36:14.292Z,50.38
2018-04-10T12:37:13.963Z,50.76
2018-04-10T12:38:14.031Z,49.60
2018-04-10T12:39:14.101Z,49.51
2018-04-10T12:40:14.171Z,49.90
2018-04-10T12:41:14.241Z,50.45
2018-04-10T12:42:14.312Z,50.84
2018-04-10T12:43:14.581Z,50.67
2018-04-10T12:44:14.449Z,50.45
2018-04-10T12:45:14.521Z,50.28
2018-04-10T12:46:14.589Z,49.73
2018-04-10T12:47:14.658Z,48.95
2018-04-10T12:48:14.728Z,48.37
2018-04-10T12:49:14.799Z,47.63
2018-04-10T12:50:14.868Z,48.18
2018-04-10T12:51:14.938Z,48.44
2018-04-10T12:52:15.009Z,49.19
2018-04-10T12:53:15.076Z,49.58